createdAt,value
2023-10-10T00:01:12.007Z,98046.94
2023-10-10T00:03:41.642Z,98052.09
2023-10-10T00:06:14.557Z,98050.19
2023-10-10T00:08:44.866Z,98053.44
2023-10-10T00:11:15.869Z,98057.94
2023-10-10T00:13:44.966Z,98056.78
2023-10-10T00:16:21.168Z,98053.56
2023-10-10T00:18:50.658Z,98058.09
2023-10-10T00:21:24.605Z,98055.34
2023-10-10T00:23:55.145Z,98054.44
2023-10-10T00:26:24.646Z,98055.59
2023-10-10T00:28:58.451Z,98066.31
2023-10-10T00:31:32.271Z,98056.91
2023-10-10T00:34:00.566Z,98057.72
2023-10-10T00:36:34.169Z,98060.78
2023-10-10T00:39:07.863Z,98064.75
2023-10-10T00:41:53.058Z,98061.91
2023-10-10T00:44:23.091Z,98063.44
2023-10-10T00:46:57.076Z,98056.38
2023-10-10T00:49:27.822Z,98060.38
2023-10-10T00:52:02.176Z,98064.44
2023-10-10T00:54:32.757Z,98058.59
2023-10-10T00:57:04.866Z,98062.22
2023-10-10T00:59:37.075Z,98060.63
2023-10-10T01:02:07.287Z,98056.94
2023-10-10T01:04:40.159Z,98056.47
2023-10-10T01:07:09.574Z,98056.22
2023-10-10T01:09:52.740Z,98052.50
2023-10-10T01:12:20.796Z,98058.16
2023-10-10T01:14:49.835Z,98054.31
2023-10-10T01:17:21.105Z,98048.81
2023-10-10T01:19:49.124Z,98045.78
2023-10-10T01:22:37.636Z,98042.59
2023-10-10T01:25:27.977Z,98055.59
2023-10-10T01:27:59.067Z,98048.94
2023-10-10T01:30:41.017Z,98051.66
2023-10-10T01:33:09.160Z,98049.88
2023-10-10T01:35:41.213Z,98050.94
2023-10-10T01:38:42.508Z,98049.53
2023-10-10T01:41:16.605Z,98049.78
2023-10-10T01:43:47.011Z,98044.19
2023-10-10T01:46:28.675Z,98048.41
2023-10-10T01:48:57.284Z,98043.25
2023-10-10T01:51:26.175Z,98046.75
2023-10-10T01:53:56.643Z,98041.84
2023-10-10T01:56:27.557Z,98042.34
2023-10-10T01:58:56.383Z,98037.41
2023-10-10T02:01:25.588Z,98034.38
2023-10-10T02:03:55.064Z,98037.31
2023-10-10T02:06:25.636Z,98036.16
2023-10-10T02:08:57.251Z,98031.47
2023-10-10T02:11:25.645Z,98028.41
2023-10-10T02:13:54.618Z,98032.31
2023-10-10T02:16:27.059Z,98029.25
2023-10-10T02:18:56.001Z,98033.97
2023-10-10T02:21:44.335Z,98037.94
2023-10-10T02:24:34.929Z,98038.75
2023-10-10T02:27:06.421Z,98035.25
2023-10-10T02:29:38.178Z,98043.91
2023-10-10T02:32:10.798Z,98041.44
2023-10-10T02:34:40.394Z,98045.91
2023-10-10T02:37:15.488Z,98047.19
2023-10-10T02:39:50.173Z,98054.91
2023-10-10T02:42:20.246Z,98061.72
2023-10-10T02:44:53.431Z,98058.19
2023-10-10T02:47:31.878Z,98063.09
2023-10-10T02:50:11.888Z,98055.47
2023-10-10T02:52:40.222Z,98057.38
2023-10-10T02:55:15.306Z,98053.88
2023-10-10T02:57:43.661Z,98057.13
2023-10-10T03:00:29.694Z,98061.13
2023-10-10T03:03:00.050Z,98063.22
2023-10-10T03:05:41.651Z,98059.72
2023-10-10T03:08:15.779Z,98062.41
2023-10-10T03:10:55.086Z,98060.88
2023-10-10T03:13:32.204Z,98064.63
2023-10-10T03:16:37.986Z,98055.25
2023-10-10T03:19:26.948Z,98054.31
2023-10-10T03:22:14.218Z,98050.00
2023-10-10T03:24:56.289Z,98060.41
2023-10-10T03:27:43.070Z,98061.13
2023-10-10T03:30:21.772Z,98062.97
2023-10-10T03:33:09.732Z,98066.97
2023-10-10T03:36:02.727Z,98066.63
2023-10-10T03:39:16.242Z,98068.97
2023-10-10T03:42:16.284Z,98067.91
2023-10-10T03:45:02.976Z,98075.13
2023-10-10T03:47:48.367Z,98076.88
2023-10-10T03:50:36.157Z,98084.25
2023-10-10T03:53:21.739Z,98071.47
2023-10-10T03:56:07.134Z,98072.56
2023-10-10T03:58:52.689Z,98067.88
2023-10-10T04:01:39.586Z,98071.03
2023-10-10T04:04:24.952Z,98063.22
2023-10-10T04:07:10.369Z,98058.25
2023-10-10T04:09:55.804Z,98063.22
2023-10-10T04:12:41.199Z,98073.72
2023-10-10T04:15:27.813Z,98074.91
2023-10-10T04:18:14.643Z,98078.38
2023-10-10T04:21:00.077Z,98081.19
2023-10-10T04:23:45.653Z,98083.47
2023-10-10T04:26:31.243Z,98076.56
2023-10-10T04:29:16.730Z,98075.47
2023-10-10T04:32:02.176Z,98072.31
2023-10-10T04:34:48.921Z,98077.28
2023-10-10T04:37:34.456Z,98081.75
2023-10-10T04:40:19.846Z,98076.09
2023-10-10T04:43:05.352Z,98076.81
2023-10-10T04:45:50.667Z,98077.75
2023-10-10T04:48:36.158Z,98075.63
2023-10-10T04:51:23.052Z,98075.09
2023-10-10T04:54:08.459Z,98070.91
2023-10-10T04:56:54.047Z,98068.94
2023-10-10T04:59:39.496Z,98066.00
2023-10-10T05:02:30.401Z,98063.94
2023-10-10T05:05:16.198Z,98069.88
2023-10-10T05:08:03.143Z,98074.53
2023-10-10T05:10:48.610Z,98074.00
2023-10-10T05:13:34.191Z,98081.94
2023-10-10T05:16:22.625Z,98086.38
2023-10-10T05:19:08.226Z,98084.72
2023-10-10T05:21:53.796Z,98092.56
2023-10-10T05:24:25.633Z,98079.09
2023-10-10T05:26:55.644Z,98084.13
2023-10-10T05:29:25.199Z,98089.06
2023-10-10T05:31:53.351Z,98089.66
2023-10-10T05:34:24.056Z,98089.22
2023-10-10T05:36:53.822Z,98086.09
2023-10-10T05:39:23.819Z,98079.50
2023-10-10T05:41:55.396Z,98079.06
2023-10-10T05:44:24.940Z,98084.69
2023-10-10T05:46:53.800Z,98091.97
2023-10-10T05:49:22.481Z,98083.09
2023-10-10T05:51:52.774Z,98081.75
2023-10-10T05:54:22.400Z,98084.91
2023-10-10T05:56:50.383Z,98089.69
2023-10-10T05:59:18.404Z,98090.31
2023-10-10T06:01:46.403Z,98094.06
2023-10-10T06:04:14.564Z,98100.41
2023-10-10T06:06:44.195Z,98095.63
2023-10-10T06:09:19.806Z,98104.88
2023-10-10T06:11:50.758Z,98097.06
2023-10-10T06:14:20.936Z,98093.22
2023-10-10T06:16:48.992Z,98098.84
2023-10-10T06:19:22.145Z,98097.03
2023-10-10T06:21:51.096Z,98090.16
2023-10-10T06:24:19.123Z,98091.84
2023-10-10T06:26:49.648Z,98098.34
2023-10-10T06:29:19.097Z,98097.41
2023-10-10T06:31:47.242Z,98088.66
2023-10-10T06:34:23.377Z,98083.97
2023-10-10T06:36:53.561Z,98079.84
2023-10-10T06:39:22.211Z,98087.91
2023-10-10T06:41:55.626Z,98095.25
2023-10-10T06:44:35.968Z,98097.59
2023-10-10T06:47:09.973Z,98109.97
2023-10-10T06:50:00.211Z,98110.69
2023-10-10T06:52:29.930Z,98114.47
2023-10-10T06:54:58.878Z,98120.28
2023-10-10T06:57:44.614Z,98115.63
2023-10-10T07:00:22.899Z,98122.94
2023-10-10T07:02:55.661Z,98124.13
2023-10-10T07:05:27.639Z,98120.16
2023-10-10T07:07:59.437Z,98132.56
2023-10-10T07:10:34.170Z,98134.69
2023-10-10T07:13:02.885Z,98128.63
2023-10-10T07:15:36.271Z,98137.56
2023-10-10T07:18:11.051Z,98136.13
2023-10-10T07:20:57.232Z,98132.44
2023-10-10T07:23:25.952Z,98132.47
2023-10-10T07:26:06.289Z,98133.56
2023-10-10T07:28:48.910Z,98138.56
2023-10-10T07:31:20.141Z,98134.19
2023-10-10T07:33:56.476Z,98135.00
2023-10-10T07:36:29.002Z,98135.09
2023-10-10T07:39:26.264Z,98141.66
2023-10-10T07:41:54.228Z,98138.72
2023-10-10T07:44:23.848Z,98145.91
2023-10-10T07:47:11.471Z,98147.47
2023-10-10T07:49:42.590Z,98142.28
2023-10-10T07:52:18.214Z,98141.84
2023-10-10T07:54:47.314Z,98147.59
2023-10-10T07:57:18.852Z,98142.63
2023-10-10T07:59:47.512Z,98141.84
2023-10-10T08:02:27.094Z,98146.03
2023-10-10T08:04:56.367Z,98141.00
2023-10-10T08:07:25.208Z,98143.13
2023-10-10T08:10:14.435Z,98134.91
2023-10-10T08:12:44.456Z,98135.78
2023-10-10T08:15:21.466Z,98125.97
2023-10-10T08:17:55.071Z,98128.81
2023-10-10T08:20:57.740Z,98126.50
2023-10-10T08:23:26.494Z,98121.00
2023-10-10T08:25:55.490Z,98131.41
2023-10-10T08:28:23.578Z,98136.53
2023-10-10T08:30:51.977Z,98124.22
2023-10-10T08:33:21.896Z,98125.00
2023-10-10T08:35:51.597Z,98125.56
2023-10-10T08:38:21.807Z,98123.19
2023-10-10T08:40:58.835Z,98130.94
2023-10-10T08:43:29.775Z,98122.50
2023-10-10T08:46:01.763Z,98109.03
2023-10-10T08:48:35.149Z,98112.59
2023-10-10T08:51:06.705Z,98109.41
2023-10-10T08:53:39.719Z,98101.59
2023-10-10T08:56:08.503Z,98094.16
2023-10-10T08:58:37.448Z,98090.44
2023-10-10T09:01:06.812Z,98092.34
2023-10-10T09:03:37.029Z,98083.25
2023-10-10T09:06:20.291Z,98083.34
2023-10-10T09:08:51.177Z,98085.09
2023-10-10T09:11:21.392Z,98086.41
2023-10-10T09:13:53.629Z,98084.25
2023-10-10T09:16:43.215Z,98094.69
2023-10-10T09:19:15.663Z,98087.97
2023-10-10T09:21:52.755Z,98084.28
2023-10-10T09:24:30.014Z,98091.56
2023-10-10T09:27:00.292Z,98083.31
2023-10-10T09:29:35.505Z,98079.25
2023-10-10T09:32:06.544Z,98070.72
2023-10-10T09:34:42.240Z,98066.53
2023-10-10T09:37:18.608Z,98072.56
2023-10-10T09:39:56.169Z,98065.69
2023-10-10T09:42:30.180Z,98063.25
2023-10-10T09:45:12.535Z,98064.28
2023-10-10T09:47:45.066Z,98060.19
2023-10-10T09:50:32.991Z,98068.41
2023-10-10T09:53:03.660Z,98058.72
2023-10-10T09:55:44.046Z,98052.09
2023-10-10T09:58:27.773Z,98041.31
2023-10-10T10:01:05.467Z,98047.13
2023-10-10T10:03:37.628Z,98052.66
2023-10-10T10:06:49.412Z,98039.13
2023-10-10T10:10:10.241Z,98036.56
2023-10-10T10:13:02.420Z,98040.91
2023-10-10T10:15:51.309Z,98041.84
2023-10-10T10:18:45.231Z,98041.78
2023-10-10T10:21:20.838Z,98029.28
2023-10-10T10:23:57.745Z,98032.94
2023-10-10T10:26:43.417Z,98031.16
2023-10-10T10:29:23.697Z,98032.03
2023-10-10T10:32:00.144Z,98023.47
2023-10-10T10:34:36.537Z,98021.88
2023-10-10T10:37:14.111Z,98021.47
2023-10-10T10:40:08.243Z,98020.78
2023-10-10T10:42:38.502Z,98014.59
2023-10-10T10:45:34.861Z,98000.78
2023-10-10T10:48:09.026Z,98005.00
2023-10-10T10:50:41.928Z,98003.91
2023-10-10T10:53:34.915Z,97994.81
2023-10-10T10:56:22.812Z,98002.72
2023-10-10T10:59:09.880Z,97998.34
2023-10-10T11:01:52.910Z,97992.59
2023-10-10T11:04:40.930Z,97985.53
2023-10-10T11:07:16.687Z,97977.78
2023-10-10T11:09:54.759Z,97977.22
2023-10-10T11:12:32.738Z,97972.53
2023-10-10T11:15:07.023Z,97970.44
2023-10-10T11:17:39.986Z,97968.84
2023-10-10T11:20:31.254Z,97978.75
2023-10-10T11:23:12.613Z,97966.50
2023-10-10T11:25:47.684Z,97963.78
2023-10-10T11:28:24.177Z,97953.31
2023-10-10T11:30:57.473Z,97957.63
2023-10-10T11:33:49.596Z,97956.75
2023-10-10T11:36:30.288Z,97950.78
2023-10-10T11:39:17.096Z,97948.91
2023-10-10T11:41:47.683Z,97949.78
2023-10-10T11:44:21.324Z,97936.53
2023-10-10T11:46:57.275Z,97942.88
2023-10-10T11:49:26.791Z,97935.47
2023-10-10T11:51:54.848Z,97927.94
2023-10-10T11:54:26.260Z,97923.25
2023-10-10T11:56:55.604Z,97916.13
2023-10-10T11:59:24.174Z,97906.84
2023-10-10T12:01:53.093Z,97912.06
2023-10-10T12:04:33.155Z,97905.75
2023-10-10T12:07:05.290Z,97904.53
2023-10-10T12:09:34.866Z,97913.75
2023-10-10T12:12:05.133Z,97897.81
2023-10-10T12:14:33.973Z,97902.47
2023-10-10T12:17:06.639Z,97907.84
2023-10-10T12:19:44.698Z,97898.19
2023-10-10T12:22:12.888Z,97897.44
2023-10-10T12:24:41.598Z,97894.75
2023-10-10T12:27:11.200Z,97892.41
2023-10-10T12:29:42.682Z,97878.09
2023-10-10T12:32:23.407Z,97891.97
2023-10-10T12:34:51.569Z,97881.69
2023-10-10T12:37:19.644Z,97889.13
2023-10-10T12:39:48.288Z,97884.53
2023-10-10T12:42:17.583Z,97878.75
2023-10-10T12:44:49.048Z,97886.75
2023-10-10T12:47:18.864Z,97879.56
2023-10-10T12:49:47.242Z,97879.56
2023-10-10T12:52:18.136Z,97867.47
2023-10-10T12:54:47.702Z,97854.78
2023-10-10T12:57:17.353Z,97865.06
2023-10-10T12:59:48.575Z,97860.56
2023-10-10T13:02:27.260Z,97860.72
2023-10-10T13:04:57.396Z,97858.41
2023-10-10T13:07:25.977Z,97850.91
2023-10-10T13:09:56.312Z,97856.31
2023-10-10T13:12:33.830Z,97850.94
2023-10-10T13:15:18.919Z,97852.81
2023-10-10T13:17:55.060Z,97857.06
2023-10-10T13:20:23.728Z,97853.75
2023-10-10T13:22:52.446Z,97849.16
2023-10-10T13:25:22.999Z,97844.81
2023-10-10T13:27:53.411Z,97844.63
2023-10-10T13:30:21.889Z,97836.13
2023-10-10T13:32:50.582Z,97840.19
2023-10-10T13:35:20.955Z,97833.19
2023-10-10T13:37:49.086Z,97839.34
2023-10-10T13:40:23.555Z,97835.22
2023-10-10T13:42:52.890Z,97834.88
2023-10-10T13:45:24.020Z,97828.88
2023-10-10T13:47:52.249Z,97821.63
2023-10-10T13:50:32.269Z,97825.16
2023-10-10T13:53:01.377Z,97827.19
2023-10-10T13:55:35.638Z,97821.00
2023-10-10T13:58:08.344Z,97823.41
2023-10-10T14:00:42.422Z,97822.94
2023-10-10T14:03:15.367Z,97826.78
2023-10-10T14:06:01.467Z,97826.09
2023-10-10T14:08:31.503Z,97821.31
2023-10-10T14:11:01.400Z,97824.03
2023-10-10T14:13:33.498Z,97821.50
2023-10-10T14:16:02.323Z,97821.78
2023-10-10T14:18:32.744Z,97805.59
2023-10-10T14:21:10.037Z,97809.47
2023-10-10T14:23:40.359Z,97809.50
2023-10-10T14:26:18.354Z,97809.69
2023-10-10T14:28:52.593Z,97806.91
2023-10-10T14:31:22.519Z,97802.47
2023-10-10T14:33:51.238Z,97801.84
2023-10-10T14:36:19.753Z,97800.22
2023-10-10T14:38:51.112Z,97799.81
2023-10-10T14:41:22.078Z,97802.25
2023-10-10T14:43:53.380Z,97800.84
2023-10-10T14:46:28.289Z,97803.06
2023-10-10T14:49:06.322Z,97798.03
2023-10-10T14:51:36.936Z,97806.09
2023-10-10T14:54:10.183Z,97795.91
2023-10-10T14:56:40.416Z,97799.75
2023-10-10T14:59:12.289Z,97798.13
2023-10-10T15:01:40.623Z,97797.91
2023-10-10T15:04:09.969Z,97795.84
2023-10-10T15:06:40.781Z,97803.28
2023-10-10T15:09:14.700Z,97787.28
2023-10-10T15:11:45.260Z,97791.06
2023-10-10T15:14:19.887Z,97795.06
2023-10-10T15:16:48.686Z,97791.78
2023-10-10T15:19:17.425Z,97802.06
2023-10-10T15:21:49.299Z,97801.03
2023-10-10T15:24:17.749Z,97799.63
2023-10-10T15:26:48.805Z,97794.97
2023-10-10T15:29:22.131Z,97800.63
2023-10-10T15:31:51.205Z,97797.03
2023-10-10T15:34:19.835Z,97789.66
2023-10-10T15:36:47.877Z,97803.56
2023-10-10T15:39:17.031Z,97798.56
2023-10-10T15:41:45.904Z,97800.44
2023-10-10T15:44:16.355Z,97807.56
2023-10-10T15:46:46.237Z,97805.06
2023-10-10T15:49:29.559Z,97809.94
2023-10-10T15:52:05.278Z,97813.22
2023-10-10T15:54:36.983Z,97817.41
2023-10-10T15:57:06.825Z,97816.16
2023-10-10T15:59:36.251Z,97819.75
2023-10-10T16:02:10.330Z,97816.72
2023-10-10T16:04:43.234Z,97820.13
2023-10-10T16:07:11.818Z,97825.75
2023-10-10T16:09:39.838Z,97828.00
2023-10-10T16:12:09.121Z,97835.78
2023-10-10T16:14:37.903Z,97841.59
2023-10-10T16:17:07.579Z,97836.50
2023-10-10T16:19:37.154Z,97840.09
2023-10-10T16:22:06.158Z,97836.84
2023-10-10T16:24:34.770Z,97838.97
2023-10-10T16:27:03.659Z,97838.69
2023-10-10T16:29:34.376Z,97844.38
2023-10-10T16:32:07.823Z,97842.38
2023-10-10T16:34:41.418Z,97847.69
2023-10-10T16:37:14.254Z,97845.00
2023-10-10T16:39:45.363Z,97844.94
2023-10-10T16:42:14.713Z,97845.59
2023-10-10T16:44:45.765Z,97855.78
2023-10-10T16:47:17.402Z,97851.13
2023-10-10T16:49:50.070Z,97846.41
2023-10-10T16:52:18.312Z,97843.53
2023-10-10T16:54:51.453Z,97842.25
2023-10-10T16:57:21.288Z,97845.19
2023-10-10T16:59:49.342Z,97852.34
2023-10-10T17:02:17.352Z,97848.47
2023-10-10T17:04:46.730Z,97846.00
2023-10-10T17:07:14.797Z,97848.97
2023-10-10T17:09:42.796Z,97859.03
2023-10-10T17:12:10.813Z,97857.88
2023-10-10T17:14:38.909Z,97860.13
2023-10-10T17:17:07.026Z,97863.03
2023-10-10T17:19:36.739Z,97865.25
2023-10-10T17:22:06.109Z,97860.34
2023-10-10T17:24:34.109Z,97864.69
2023-10-10T17:27:06.370Z,97869.38
2023-10-10T17:29:36.498Z,97870.78
2023-10-10T17:32:06.844Z,97870.09
2023-10-10T17:34:34.988Z,97875.38
2023-10-10T17:37:09.597Z,97884.25
2023-10-10T17:39:38.929Z,97883.59
2023-10-10T17:42:07.889Z,97882.38
2023-10-10T17:44:38.906Z,97890.28
2023-10-10T17:47:07.410Z,97879.97
2023-10-10T17:49:35.936Z,97888.06
2023-10-10T17:52:04.232Z,97883.66
2023-10-10T17:54:32.303Z,97887.25
2023-10-10T17:57:01.785Z,97883.47
2023-10-10T17:59:32.137Z,97889.63
2023-10-10T18:02:00.725Z,97877.25
2023-10-10T18:04:29.362Z,97887.34
2023-10-10T18:07:00.928Z,97885.84
2023-10-10T18:09:33.344Z,97886.69
2023-10-10T18:12:03.523Z,97882.16
2023-10-10T18:14:33.144Z,97884.63
2023-10-10T18:17:01.162Z,97881.38
2023-10-10T18:19:29.216Z,97887.94
2023-10-10T18:21:57.383Z,97889.63
2023-10-10T18:24:28.242Z,97887.78
2023-10-10T18:26:57.286Z,97896.28
2023-10-10T18:29:27.555Z,97887.44
2023-10-10T18:31:58.983Z,97890.75
2023-10-10T18:34:26.985Z,97894.03
2023-10-10T18:36:55.005Z,97888.50
2023-10-10T18:39:27.627Z,97889.06
2023-10-10T18:41:55.750Z,97891.41
2023-10-10T18:44:23.974Z,97890.91
2023-10-10T18:46:53.324Z,97889.16
2023-10-10T18:49:22.957Z,97874.03
2023-10-10T18:51:51.169Z,97874.75
2023-10-10T18:54:20.229Z,97883.63
2023-10-10T18:56:50.819Z,97871.97
2023-10-10T18:59:19.043Z,97884.88
2023-10-10T19:01:48.588Z,97894.00
2023-10-10T19:04:19.571Z,97891.56
2023-10-10T19:06:51.522Z,97880.41
2023-10-10T19:09:24.005Z,97897.72
2023-10-10T19:11:52.676Z,97891.84
2023-10-10T19:14:20.717Z,97889.78
2023-10-10T19:16:48.695Z,97886.28
2023-10-10T19:19:20.800Z,97885.84
2023-10-10T19:21:49.204Z,97881.78
2023-10-10T19:24:17.433Z,97890.34
2023-10-10T19:26:48.423Z,97885.16
2023-10-10T19:29:18.474Z,97880.28
2023-10-10T19:31:46.568Z,97893.19
2023-10-10T19:34:15.631Z,97898.78
2023-10-10T19:36:45.783Z,97895.94
2023-10-10T19:39:13.808Z,97893.31
2023-10-10T19:41:44.715Z,97897.38
2023-10-10T19:44:15.899Z,97896.69
2023-10-10T19:46:45.322Z,97900.75
2023-10-10T19:49:14.438Z,97895.97
2023-10-10T19:51:45.471Z,97886.31
2023-10-10T19:54:14.171Z,97891.50
2023-10-10T19:56:43.956Z,97896.66
2023-10-10T19:59:11.977Z,97896.94
2023-10-10T20:01:40.057Z,97896.50
2023-10-10T20:04:08.578Z,97904.38
2023-10-10T20:06:36.680Z,97897.59
2023-10-10T20:09:11.913Z,97893.78
2023-10-10T20:11:41.607Z,97892.38
2023-10-10T20:14:10.524Z,97889.75
2023-10-10T20:16:39.571Z,97885.00
2023-10-10T20:19:08.384Z,97889.03
2023-10-10T20:21:37.655Z,97888.91
2023-10-10T20:24:09.335Z,97892.03
2023-10-10T20:26:37.924Z,97894.59
2023-10-10T20:29:10.456Z,97901.50
2023-10-10T20:31:38.465Z,97897.25
2023-10-10T20:34:06.533Z,97896.13
2023-10-10T20:36:37.728Z,97907.28
2023-10-10T20:39:07.909Z,97895.31
2023-10-10T20:41:35.944Z,97897.63
2023-10-10T20:44:04.030Z,97892.34
2023-10-10T20:46:32.715Z,97892.22
2023-10-10T20:49:01.510Z,97886.91
2023-10-10T20:51:29.406Z,97892.75
2023-10-10T20:53:57.696Z,97893.84
2023-10-10T20:56:28.558Z,97892.72
2023-10-10T20:58:56.587Z,97892.66
2023-10-10T21:01:24.616Z,97896.16
2023-10-10T21:03:52.741Z,97894.22
2023-10-10T21:06:21.776Z,97895.41
2023-10-10T21:08:50.263Z,97889.56
2023-10-10T21:11:18.545Z,97890.88
2023-10-10T21:13:48.021Z,97897.31
2023-10-10T21:16:17.149Z,97890.34
2023-10-10T21:18:47.425Z,97894.38
2023-10-10T21:21:16.126Z,97893.59
2023-10-10T21:23:44.628Z,97896.56
2023-10-10T21:26:16.137Z,97892.78
2023-10-10T21:28:45.424Z,97892.66
2023-10-10T21:31:14.868Z,97891.03
2023-10-10T21:33:45.198Z,97891.69
2023-10-10T21:36:14.242Z,97896.72
2023-10-10T21:38:43.195Z,97889.84
2023-10-10T21:41:12.545Z,97888.19
2023-10-10T21:43:40.696Z,97884.81
2023-10-10T21:46:09.311Z,97892.78
2023-10-10T21:48:40.813Z,97887.88
2023-10-10T21:51:09.026Z,97887.03
2023-10-10T21:53:38.592Z,97900.19
2023-10-10T21:56:08.322Z,97894.22
2023-10-10T21:58:39.674Z,97891.31
2023-10-10T22:01:12.219Z,97887.25
2023-10-10T22:03:45.595Z,97896.28
2023-10-10T22:06:14.232Z,97894.75
2023-10-10T22:08:43.613Z,97896.31
2023-10-10T22:11:12.639Z,97889.44
2023-10-10T22:13:40.718Z,97892.75
2023-10-10T22:16:08.926Z,97888.66
2023-10-10T22:18:37.063Z,97885.53
2023-10-10T22:21:10.614Z,97894.97
2023-10-10T22:23:38.856Z,97885.03
2023-10-10T22:26:06.880Z,97885.28
2023-10-10T22:28:34.931Z,97888.69
2023-10-10T22:31:04.910Z,97877.34
2023-10-10T22:33:32.980Z,97877.25
2023-10-10T22:36:15.813Z,97877.84
2023-10-10T22:38:46.219Z,97879.00
2023-10-10T22:41:14.743Z,97873.84
2023-10-10T22:43:42.994Z,97881.59
2023-10-10T22:46:11.012Z,97877.25
2023-10-10T22:48:39.402Z,97868.72
2023-10-10T22:51:07.638Z,97871.38
2023-10-10T22:53:37.664Z,97870.34
2023-10-10T22:56:12.373Z,97866.75
2023-10-10T22:58:43.253Z,97871.03
2023-10-10T23:01:15.834Z,97865.09
2023-10-10T23:03:44.442Z,97857.50
2023-10-10T23:06:13.990Z,97869.06
2023-10-10T23:08:43.928Z,97864.50
2023-10-10T23:11:14.042Z,97872.44
2023-10-10T23:13:42.041Z,97870.00
2023-10-10T23:16:17.968Z,97875.84
2023-10-10T23:18:46.519Z,97873.38
2023-10-10T23:21:14.858Z,97869.06
2023-10-10T23:23:44.243Z,97870.00
2023-10-10T23:26:12.327Z,97864.84
2023-10-10T23:28:40.329Z,97873.50
2023-10-10T23:31:08.435Z,97870.13
2023-10-10T23:33:36.589Z,97870.25
2023-10-10T23:36:07.456Z,97863.31
2023-10-10T23:38:35.566Z,97867.03
2023-10-10T23:41:05.442Z,97868.13
2023-10-10T23:43:37.856Z,97863.44
2023-10-10T23:46:07.097Z,97866.09
2023-10-10T23:48:36.829Z,97867.28
2023-10-10T23:51:08.152Z,97862.16
2023-10-10T23:53:38.782Z,97864.94
2023-10-10T23:56:09.237Z,97876.44
2023-10-10T23:58:37.444Z,97877.13
